sensor_id;sensor_type;location;lat;lon;timestamp;P1;durP1;ratioP1;P2;durP2;ratioP2
64950;SDS011;51482;47.014;7.652;2022-12-18T00:01:17;21.93;;;11.53;;
64950;SDS011;51482;47.014;7.652;2022-12-18T00:03:45;22.93;;;12.43;;
64950;SDS011;51482;47.014;7.652;2022-12-18T00:06:11;21.27;;;11.53;;
64950;SDS011;51482;47.014;7.652;2022-12-18T00:08:37;19.47;;;11.83;;
64950;SDS011;51482;47.014;7.652;2022-12-18T00:11:03;19.37;;;11.17;;
64950;SDS011;51482;47.014;7.652;2022-12-18T00:13:30;22.23;;;11.77;;
64950;SDS011;51482;47.014;7.652;2022-12-18T00:15:55;22.70;;;11.43;;
64950;SDS011;51482;47.014;7.652;2022-12-18T00:18:27;22.70;;;11.43;;
64950;SDS011;51482;47.014;7.652;2022-12-18T00:20:53;21.33;;;12.33;;
64950;SDS011;51482;47.014;7.652;2022-12-18T00:23:18;25.00;;;13.10;;
64950;SDS011;51482;47.014;7.652;2022-12-18T00:25:44;21.47;;;11.97;;
64950;SDS011;51482;47.014;7.652;2022-12-18T00:28:09;19.33;;;11.63;;
64950;SDS011;51482;47.014;7.652;2022-12-18T00:30:35;22.20;;;11.47;;
64950;SDS011;51482;47.014;7.652;2022-12-18T00:33:00;18.33;;;11.47;;
64950;SDS011;51482;47.014;7.652;2022-12-18T00:35:26;22.07;;;12.83;;
64950;SDS011;51482;47.014;7.652;2022-12-18T00:37:51;21.07;;;12.23;;
64950;SDS011;51482;47.014;7.652;2022-12-18T00:40:17;18.53;;;11.37;;
64950;SDS011;51482;47.014;7.652;2022-12-18T00:42:42;21.13;;;12.57;;
64950;SDS011;51482;47.014;7.652;2022-12-18T00:45:27;20.90;;;11.03;;
64950;SDS011;51482;47.014;7.652;2022-12-18T00:47:54;19.77;;;11.43;;
64950;SDS011;51482;47.014;7.652;2022-12-18T00:50:22;21.57;;;12.27;;
64950;SDS011;51482;47.014;7.652;2022-12-18T00:52:49;22.57;;;12.03;;
64950;SDS011;51482;47.014;7.652;2022-12-18T00:55:15;21.83;;;11.87;;
64950;SDS011;51482;47.014;7.652;2022-12-18T00:57:41;23.40;;;12.10;;
64950;SDS011;51482;47.014;7.652;2022-12-18T01:00:07;22.90;;;12.17;;
64950;SDS011;51482;47.014;7.652;2022-12-18T01:02:35;19.47;;;11.07;;
64950;SDS011;51482;47.014;7.652;2022-12-18T01:05:00;20.57;;;12.17;;
64950;SDS011;51482;47.014;7.652;2022-12-18T01:07:26;21.43;;;12.37;;
64950;SDS011;51482;47.014;7.652;2022-12-18T01:09:51;21.93;;;11.93;;
64950;SDS011;51482;47.014;7.652;2022-12-18T01:12:17;19.20;;;11.47;;
64950;SDS011;51482;47.014;7.652;2022-12-18T01:14:43;18.87;;;11.00;;
64950;SDS011;51482;47.014;7.652;2022-12-18T01:17:08;20.30;;;11.73;;
64950;SDS011;51482;47.014;7.652;2022-12-18T01:19:34;22.60;;;13.20;;
64950;SDS011;51482;47.014;7.652;2022-12-18T01:21:59;21.53;;;12.50;;
64950;SDS011;51482;47.014;7.652;2022-12-18T01:24:25;20.33;;;12.40;;
64950;SDS011;51482;47.014;7.652;2022-12-18T01:26:50;20.40;;;12.60;;
64950;SDS011;51482;47.014;7.652;2022-12-18T01:29:16;20.10;;;11.83;;
64950;SDS011;51482;47.014;7.652;2022-12-18T01:31:41;18.00;;;11.37;;
64950;SDS011;51482;47.014;7.652;2022-12-18T01:34:08;18.40;;;11.60;;
64950;SDS011;51482;47.014;7.652;2022-12-18T01:36:34;20.53;;;12.23;;
64950;SDS011;51482;47.014;7.652;2022-12-18T01:39:03;20.37;;;12.07;;
64950;SDS011;51482;47.014;7.652;2022-12-18T01:41:33;24.20;;;13.17;;
64950;SDS011;51482;47.014;7.652;2022-12-18T01:49:59;23.07;;;12.43;;
64950;SDS011;51482;47.014;7.652;2022-12-18T01:52:34;22.20;;;12.53;;
64950;SDS011;51482;47.014;7.652;2022-12-18T01:55:00;21.97;;;13.03;;
64950;SDS011;51482;47.014;7.652;2022-12-18T01:57:28;25.20;;;13.73;;
64950;SDS011;51482;47.014;7.652;2022-12-18T01:59:57;19.93;;;11.93;;
64950;SDS011;51482;47.014;7.652;2022-12-18T02:02:26;21.27;;;12.57;;
64950;SDS011;51482;47.014;7.652;2022-12-18T02:04:53;20.10;;;11.77;;
64950;SDS011;51482;47.014;7.652;2022-12-18T02:11:04;21.03;;;11.60;;
64950;SDS011;51482;47.014;7.652;2022-12-18T02:16:21;22.83;;;12.70;;
64950;SDS011;51482;47.014;7.652;2022-12-18T02:19:03;21.10;;;12.30;;
64950;SDS011;51482;47.014;7.652;2022-12-18T02:22:18;22.80;;;12.30;;
64950;SDS011;51482;47.014;7.652;2022-12-18T02:24:41;24.87;;;12.40;;
64950;SDS011;51482;47.014;7.652;2022-12-18T02:27:29;21.70;;;11.70;;
64950;SDS011;51482;47.014;7.652;2022-12-18T02:29:57;21.17;;;11.17;;
64950;SDS011;51482;47.014;7.652;2022-12-18T02:32:30;23.03;;;12.97;;
64950;SDS011;51482;47.014;7.652;2022-12-18T02:34:59;19.80;;;11.47;;
64950;SDS011;51482;47.014;7.652;2022-12-18T02:37:27;23.03;;;11.23;;
64950;SDS011;51482;47.014;7.652;2022-12-18T02:39:54;20.10;;;11.63;;
64950;SDS011;51482;47.014;7.652;2022-12-18T02:42:23;21.20;;;12.07;;
64950;SDS011;51482;47.014;7.652;2022-12-18T02:44:50;20.90;;;12.13;;
64950;SDS011;51482;47.014;7.652;2022-12-18T02:47:17;21.33;;;11.30;;
64950;SDS011;51482;47.014;7.652;2022-12-18T02:52:55;21.27;;;12.50;;
64950;SDS011;51482;47.014;7.652;2022-12-18T03:00:43;24.70;;;12.47;;
64950;SDS011;51482;47.014;7.652;2022-12-18T03:05:50;21.80;;;12.27;;
64950;SDS011;51482;47.014;7.652;2022-12-18T03:08:30;24.40;;;12.60;;
64950;SDS011;51482;47.014;7.652;2022-12-18T03:11:02;24.07;;;12.57;;
64950;SDS011;51482;47.014;7.652;2022-12-18T03:13:31;22.53;;;12.57;;
64950;SDS011;51482;47.014;7.652;2022-12-18T03:15:59;26.23;;;14.27;;
64950;SDS011;51482;47.014;7.652;2022-12-18T03:21:15;25.07;;;13.60;;
64950;SDS011;51482;47.014;7.652;2022-12-18T03:23:46;24.60;;;13.70;;
64950;SDS011;51482;47.014;7.652;2022-12-18T03:26:16;25.77;;;14.57;;
64950;SDS011;51482;47.014;7.652;2022-12-18T03:28:46;24.03;;;13.30;;
64950;SDS011;51482;47.014;7.652;2022-12-18T03:31:16;24.33;;;13.63;;
64950;SDS011;51482;47.014;7.652;2022-12-18T03:33:52;22.70;;;13.90;;
64950;SDS011;51482;47.014;7.652;2022-12-18T03:36:20;27.63;;;15.03;;
64950;SDS011;51482;47.014;7.652;2022-12-18T03:38:46;25.80;;;15.37;;
64950;SDS011;51482;47.014;7.652;2022-12-18T03:44:21;25.80;;;13.73;;
64950;SDS011;51482;47.014;7.652;2022-12-18T03:47:14;29.67;;;15.10;;
64950;SDS011;51482;47.014;7.652;2022-12-18T03:52:31;26.43;;;13.83;;
64950;SDS011;51482;47.014;7.652;2022-12-18T03:55:02;28.10;;;15.20;;
64950;SDS011;51482;47.014;7.652;2022-12-18T03:57:30;30.60;;;14.70;;
64950;SDS011;51482;47.014;7.652;2022-12-18T03:59:59;26.77;;;15.00;;
64950;SDS011;51482;47.014;7.652;2022-12-18T04:02:29;25.77;;;14.43;;
64950;SDS011;51482;47.014;7.652;2022-12-18T04:04:57;25.47;;;14.43;;
64950;SDS011;51482;47.014;7.652;2022-12-18T04:07:25;24.23;;;14.00;;
64950;SDS011;51482;47.014;7.652;2022-12-18T04:09:52;26.40;;;15.23;;
64950;SDS011;51482;47.014;7.652;2022-12-18T04:12:21;25.10;;;13.17;;
64950;SDS011;51482;47.014;7.652;2022-12-18T04:14:50;28.53;;;14.77;;
64950;SDS011;51482;47.014;7.652;2022-12-18T04:17:15;25.47;;;14.33;;
64950;SDS011;51482;47.014;7.652;2022-12-18T04:19:41;26.93;;;16.37;;
64950;SDS011;51482;47.014;7.652;2022-12-18T04:22:08;26.20;;;13.27;;
64950;SDS011;51482;47.014;7.652;2022-12-18T04:24:35;27.90;;;14.07;;
64950;SDS011;51482;47.014;7.652;2022-12-18T04:27:01;24.97;;;13.63;;
64950;SDS011;51482;47.014;7.652;2022-12-18T04:29:26;27.97;;;15.53;;
64950;SDS011;51482;47.014;7.652;2022-12-18T04:31:52;26.97;;;13.37;;
64950;SDS011;51482;47.014;7.652;2022-12-18T04:34:17;26.87;;;13.43;;
64950;SDS011;51482;47.014;7.652;2022-12-18T04:36:43;25.57;;;13.33;;
64950;SDS011;51482;47.014;7.652;2022-12-18T04:39:08;28.60;;;13.33;;
64950;SDS011;51482;47.014;7.652;2022-12-18T04:41:34;25.13;;;14.00;;
64950;SDS011;51482;47.014;7.652;2022-12-18T04:43:59;22.40;;;12.93;;
64950;SDS011;51482;47.014;7.652;2022-12-18T04:46:25;22.63;;;13.93;;
64950;SDS011;51482;47.014;7.652;2022-12-18T04:48:50;26.43;;;13.23;;
64950;SDS011;51482;47.014;7.652;2022-12-18T04:51:16;26.57;;;13.80;;
64950;SDS011;51482;47.014;7.652;2022-12-18T04:53:42;23.80;;;12.60;;
64950;SDS011;51482;47.014;7.652;2022-12-18T04:56:08;24.20;;;12.90;;
64950;SDS011;51482;47.014;7.652;2022-12-18T04:58:35;25.33;;;14.60;;
64950;SDS011;51482;47.014;7.652;2022-12-18T05:01:02;25.60;;;13.40;;
64950;SDS011;51482;47.014;7.652;2022-12-18T05:03:28;22.97;;;12.67;;
64950;SDS011;51482;47.014;7.652;2022-12-18T05:05:54;23.23;;;12.90;;
64950;SDS011;51482;47.014;7.652;2022-12-18T05:08:19;23.03;;;12.90;;
64950;SDS011;51482;47.014;7.652;2022-12-18T05:10:45;25.13;;;12.80;;
64950;SDS011;51482;47.014;7.652;2022-12-18T05:13:10;25.33;;;12.70;;
64950;SDS011;51482;47.014;7.652;2022-12-18T05:15:36;21.17;;;11.97;;
64950;SDS011;51482;47.014;7.652;2022-12-18T05:18:02;22.63;;;13.37;;
64950;SDS011;51482;47.014;7.652;2022-12-18T05:20:28;22.27;;;12.57;;
64950;SDS011;51482;47.014;7.652;2022-12-18T05:22:54;23.93;;;13.10;;
64950;SDS011;51482;47.014;7.652;2022-12-18T05:25:20;21.33;;;11.63;;
64950;SDS011;51482;47.014;7.652;2022-12-18T05:27:46;24.77;;;13.07;;
64950;SDS011;51482;47.014;7.652;2022-12-18T05:30:12;20.43;;;11.67;;
64950;SDS011;51482;47.014;7.652;2022-12-18T05:32:38;22.80;;;12.27;;
64950;SDS011;51482;47.014;7.652;2022-12-18T05:35:05;22.57;;;11.77;;
64950;SDS011;51482;47.014;7.652;2022-12-18T05:37:32;19.50;;;11.40;;
64950;SDS011;51482;47.014;7.652;2022-12-18T05:39:58;20.67;;;11.50;;
64950;SDS011;51482;47.014;7.652;2022-12-18T05:42:24;20.77;;;11.80;;
64950;SDS011;51482;47.014;7.652;2022-12-18T05:44:49;21.30;;;11.73;;
64950;SDS011;51482;47.014;7.652;2022-12-18T05:47:15;22.33;;;12.17;;
64950;SDS011;51482;47.014;7.652;2022-12-18T05:49:40;20.87;;;12.47;;
64950;SDS011;51482;47.014;7.652;2022-12-18T05:52:06;17.30;;;10.17;;
64950;SDS011;51482;47.014;7.652;2022-12-18T05:54:32;19.60;;;11.53;;
64950;SDS011;51482;47.014;7.652;2022-12-18T05:56:57;19.77;;;11.27;;
64950;SDS011;51482;47.014;7.652;2022-12-18T05:59:23;20.97;;;10.83;;
64950;SDS011;51482;47.014;7.652;2022-12-18T06:01:49;21.27;;;11.53;;
64950;SDS011;51482;47.014;7.652;2022-12-18T06:04:15;19.63;;;11.53;;
64950;SDS011;51482;47.014;7.652;2022-12-18T06:06:40;20.97;;;12.47;;
64950;SDS011;51482;47.014;7.652;2022-12-18T06:09:06;30.90;;;17.17;;
64950;SDS011;51482;47.014;7.652;2022-12-18T06:11:34;22.13;;;11.90;;
64950;SDS011;51482;47.014;7.652;2022-12-18T06:14:02;25.27;;;12.23;;
64950;SDS011;51482;47.014;7.652;2022-12-18T06:16:29;23.10;;;12.40;;
64950;SDS011;51482;47.014;7.652;2022-12-18T06:18:56;22.70;;;11.90;;
64950;SDS011;51482;47.014;7.652;2022-12-18T06:21:25;20.80;;;11.77;;
64950;SDS011;51482;47.014;7.652;2022-12-18T06:23:52;21.77;;;11.57;;
64950;SDS011;51482;47.014;7.652;2022-12-18T06:26:18;23.23;;;12.03;;
64950;SDS011;51482;47.014;7.652;2022-12-18T06:28:43;19.13;;;10.60;;
64950;SDS011;51482;47.014;7.652;2022-12-18T06:31:09;20.43;;;11.53;;
64950;SDS011;51482;47.014;7.652;2022-12-18T06:33:35;19.70;;;11.53;;
64950;SDS011;51482;47.014;7.652;2022-12-18T06:36:02;19.20;;;11.27;;
64950;SDS011;51482;47.014;7.652;2022-12-18T06:38:31;19.57;;;11.17;;
64950;SDS011;51482;47.014;7.652;2022-12-18T06:40:57;21.33;;;11.43;;
64950;SDS011;51482;47.014;7.652;2022-12-18T06:43:23;18.63;;;11.47;;
64950;SDS011;51482;47.014;7.652;2022-12-18T06:45:49;18.13;;;11.17;;
64950;SDS011;51482;47.014;7.652;2022-12-18T06:48:18;19.57;;;10.40;;
64950;SDS011;51482;47.014;7.652;2022-12-18T06:50:44;19.17;;;11.40;;
64950;SDS011;51482;47.014;7.652;2022-12-18T06:53:10;16.77;;;9.80;;
64950;SDS011;51482;47.014;7.652;2022-12-18T06:55:36;20.60;;;12.43;;
64950;SDS011;51482;47.014;7.652;2022-12-18T06:58:01;17.77;;;9.83;;
64950;SDS011;51482;47.014;7.652;2022-12-18T07:00:27;17.37;;;10.87;;
64950;SDS011;51482;47.014;7.652;2022-12-18T07:02:52;18.47;;;11.27;;
64950;SDS011;51482;47.014;7.652;2022-12-18T07:05:18;19.93;;;11.53;;
64950;SDS011;51482;47.014;7.652;2022-12-18T07:07:43;15.20;;;9.37;;
64950;SDS011;51482;47.014;7.652;2022-12-18T07:10:09;17.90;;;10.10;;
64950;SDS011;51482;47.014;7.652;2022-12-18T07:12:34;18.10;;;11.00;;
64950;SDS011;51482;47.014;7.652;2022-12-18T07:15:00;20.17;;;11.40;;
64950;SDS011;51482;47.014;7.652;2022-12-18T07:17:26;20.47;;;11.03;;
64950;SDS011;51482;47.014;7.652;2022-12-18T07:19:51;17.07;;;10.77;;
64950;SDS011;51482;47.014;7.652;2022-12-18T07:22:17;16.70;;;9.93;;
64950;SDS011;51482;47.014;7.652;2022-12-18T07:24:43;18.63;;;10.90;;
64950;SDS011;51482;47.014;7.652;2022-12-18T07:27:08;17.93;;;10.83;;
64950;SDS011;51482;47.014;7.652;2022-12-18T07:29:34;20.67;;;10.70;;
64950;SDS011;51482;47.014;7.652;2022-12-18T07:31:59;17.63;;;10.50;;
64950;SDS011;51482;47.014;7.652;2022-12-18T07:34:25;19.37;;;12.10;;
64950;SDS011;51482;47.014;7.652;2022-12-18T07:36:50;18.47;;;10.43;;
64950;SDS011;51482;47.014;7.652;2022-12-18T07:39:16;19.23;;;10.47;;
64950;SDS011;51482;47.014;7.652;2022-12-18T07:41:41;21.43;;;10.87;;
64950;SDS011;51482;47.014;7.652;2022-12-18T07:44:11;19.77;;;11.33;;
64950;SDS011;51482;47.014;7.652;2022-12-18T07:46:37;20.47;;;11.10;;
64950;SDS011;51482;47.014;7.652;2022-12-18T07:49:03;16.30;;;10.37;;
64950;SDS011;51482;47.014;7.652;2022-12-18T07:51:29;18.80;;;10.80;;
64950;SDS011;51482;47.014;7.652;2022-12-18T07:53:54;19.00;;;11.27;;
64950;SDS011;51482;47.014;7.652;2022-12-18T07:56:21;19.50;;;10.97;;
64950;SDS011;51482;47.014;7.652;2022-12-18T07:58:46;18.83;;;10.83;;
64950;SDS011;51482;47.014;7.652;2022-12-18T08:01:12;21.10;;;11.77;;
64950;SDS011;51482;47.014;7.652;2022-12-18T08:03:38;19.87;;;11.47;;
64950;SDS011;51482;47.014;7.652;2022-12-18T08:06:05;19.57;;;11.70;;
64950;SDS011;51482;47.014;7.652;2022-12-18T08:08:33;22.57;;;11.90;;
64950;SDS011;51482;47.014;7.652;2022-12-18T08:10:59;21.60;;;12.23;;
64950;SDS011;51482;47.014;7.652;2022-12-18T08:13:25;21.63;;;12.57;;
64950;SDS011;51482;47.014;7.652;2022-12-18T08:15:58;22.17;;;11.53;;
64950;SDS011;51482;47.014;7.652;2022-12-18T08:18:35;19.60;;;11.20;;
64950;SDS011;51482;47.014;7.652;2022-12-18T08:21:11;18.67;;;11.00;;
64950;SDS011;51482;47.014;7.652;2022-12-18T08:23:37;19.47;;;12.30;;
64950;SDS011;51482;47.014;7.652;2022-12-18T08:26:03;20.33;;;11.50;;
64950;SDS011;51482;47.014;7.652;2022-12-18T08:28:29;19.77;;;10.87;;
64950;SDS011;51482;47.014;7.652;2022-12-18T08:30:55;17.83;;;11.47;;
64950;SDS011;51482;47.014;7.652;2022-12-18T08:33:20;21.60;;;11.00;;
64950;SDS011;51482;47.014;7.652;2022-12-18T08:35:46;21.33;;;11.43;;
64950;SDS011;51482;47.014;7.652;2022-12-18T08:38:11;19.33;;;10.60;;
64950;SDS011;51482;47.014;7.652;2022-12-18T08:40:37;19.53;;;11.80;;
64950;SDS011;51482;47.014;7.652;2022-12-18T08:43:02;19.63;;;11.83;;
64950;SDS011;51482;47.014;7.652;2022-12-18T08:45:47;18.43;;;10.93;;
64950;SDS011;51482;47.014;7.652;2022-12-18T08:48:12;20.30;;;11.77;;
64950;SDS011;51482;47.014;7.652;2022-12-18T08:50:38;17.23;;;10.97;;
64950;SDS011;51482;47.014;7.652;2022-12-18T08:53:03;22.20;;;11.70;;
64950;SDS011;51482;47.014;7.652;2022-12-18T08:55:29;19.87;;;10.53;;
64950;SDS011;51482;47.014;7.652;2022-12-18T08:57:55;21.83;;;10.77;;
64950;SDS011;51482;47.014;7.652;2022-12-18T09:00:20;19.47;;;11.37;;
64950;SDS011;51482;47.014;7.652;2022-12-18T09:02:46;22.30;;;12.47;;
64950;SDS011;51482;47.014;7.652;2022-12-18T09:05:11;18.50;;;10.97;;
64950;SDS011;51482;47.014;7.652;2022-12-18T09:07:37;23.20;;;12.00;;
64950;SDS011;51482;47.014;7.652;2022-12-18T09:10:03;21.17;;;10.67;;
64950;SDS011;51482;47.014;7.652;2022-12-18T09:12:29;16.97;;;11.37;;
64950;SDS011;51482;47.014;7.652;2022-12-18T09:14:54;17.47;;;10.30;;
64950;SDS011;51482;47.014;7.652;2022-12-18T09:17:21;20.77;;;11.43;;
64950;SDS011;51482;47.014;7.652;2022-12-18T09:19:47;22.93;;;11.80;;
64950;SDS011;51482;47.014;7.652;2022-12-18T09:22:12;17.83;;;10.20;;
64950;SDS011;51482;47.014;7.652;2022-12-18T09:24:38;19.13;;;10.97;;
64950;SDS011;51482;47.014;7.652;2022-12-18T09:27:03;19.87;;;11.00;;
64950;SDS011;51482;47.014;7.652;2022-12-18T09:29:29;19.33;;;11.13;;
64950;SDS011;51482;47.014;7.652;2022-12-18T09:31:55;16.40;;;9.90;;
64950;SDS011;51482;47.014;7.652;2022-12-18T09:34:21;21.67;;;11.50;;
64950;SDS011;51482;47.014;7.652;2022-12-18T09:36:47;17.40;;;10.23;;
64950;SDS011;51482;47.014;7.652;2022-12-18T09:39:13;19.17;;;10.97;;
64950;SDS011;51482;47.014;7.652;2022-12-18T09:41:40;16.87;;;10.27;;
64950;SDS011;51482;47.014;7.652;2022-12-18T09:44:28;21.33;;;10.73;;
64950;SDS011;51482;47.014;7.652;2022-12-18T09:47:13;19.20;;;10.77;;
64950;SDS011;51482;47.014;7.652;2022-12-18T09:49:44;19.13;;;10.73;;
64950;SDS011;51482;47.014;7.652;2022-12-18T09:54:40;19.13;;;11.17;;
64950;SDS011;51482;47.014;7.652;2022-12-18T09:57:13;19.83;;;10.90;;
64950;SDS011;51482;47.014;7.652;2022-12-18T09:59:41;19.23;;;10.83;;
64950;SDS011;51482;47.014;7.652;2022-12-18T10:02:22;20.13;;;10.63;;
64950;SDS011;51482;47.014;7.652;2022-12-18T10:05:33;18.70;;;11.27;;
64950;SDS011;51482;47.014;7.652;2022-12-18T10:07:53;16.50;;;10.13;;
64950;SDS011;51482;47.014;7.652;2022-12-18T10:13:12;19.57;;;10.63;;
64950;SDS011;51482;47.014;7.652;2022-12-18T10:21:21;16.43;;;10.17;;
64950;SDS011;51482;47.014;7.652;2022-12-18T10:26:53;17.27;;;10.07;;
64950;SDS011;51482;47.014;7.652;2022-12-18T10:29:24;18.23;;;11.53;;
64950;SDS011;51482;47.014;7.652;2022-12-18T10:31:50;17.33;;;9.70;;
64950;SDS011;51482;47.014;7.652;2022-12-18T10:34:16;17.60;;;11.03;;
64950;SDS011;51482;47.014;7.652;2022-12-18T10:36:41;17.40;;;9.67;;
64950;SDS011;51482;47.014;7.652;2022-12-18T10:39:14;17.80;;;10.60;;
64950;SDS011;51482;47.014;7.652;2022-12-18T10:41:40;16.87;;;10.53;;
64950;SDS011;51482;47.014;7.652;2022-12-18T10:44:14;19.50;;;10.50;;
64950;SDS011;51482;47.014;7.652;2022-12-18T10:46:43;15.93;;;10.47;;
64950;SDS011;51482;47.014;7.652;2022-12-18T10:49:21;17.20;;;11.13;;
64950;SDS011;51482;47.014;7.652;2022-12-18T10:51:51;22.53;;;11.13;;
64950;SDS011;51482;47.014;7.652;2022-12-18T10:54:36;18.53;;;10.47;;
64950;SDS011;51482;47.014;7.652;2022-12-18T11:00:19;20.23;;;11.47;;
64950;SDS011;51482;47.014;7.652;2022-12-18T11:02:51;19.50;;;10.53;;
64950;SDS011;51482;47.014;7.652;2022-12-18T11:05:24;18.07;;;11.10;;
64950;SDS011;51482;47.014;7.652;2022-12-18T11:07:50;18.40;;;10.47;;
64950;SDS011;51482;47.014;7.652;2022-12-18T11:10:17;17.63;;;10.80;;
64950;SDS011;51482;47.014;7.652;2022-12-18T11:12:44;18.90;;;10.83;;
64950;SDS011;51482;47.014;7.652;2022-12-18T11:15:26;20.17;;;11.03;;
64950;SDS011;51482;47.014;7.652;2022-12-18T11:17:54;16.57;;;9.77;;
64950;SDS011;51482;47.014;7.652;2022-12-18T11:20:21;17.83;;;10.07;;
64950;SDS011;51482;47.014;7.652;2022-12-18T11:23:01;18.10;;;10.00;;
64950;SDS011;51482;47.014;7.652;2022-12-18T11:25:31;18.53;;;10.37;;
64950;SDS011;51482;47.014;7.652;2022-12-18T11:27:59;15.43;;;9.63;;
64950;SDS011;51482;47.014;7.652;2022-12-18T11:30:45;16.27;;;9.00;;
64950;SDS011;51482;47.014;7.652;2022-12-18T11:33:13;17.70;;;9.43;;
64950;SDS011;51482;47.014;7.652;2022-12-18T11:38:18;19.80;;;10.90;;
64950;SDS011;51482;47.014;7.652;2022-12-18T11:41:00;18.27;;;10.57;;
64950;SDS011;51482;47.014;7.652;2022-12-18T11:46:27;16.03;;;9.13;;
64950;SDS011;51482;47.014;7.652;2022-12-18T11:48:59;17.03;;;9.60;;
64950;SDS011;51482;47.014;7.652;2022-12-18T11:51:44;15.30;;;9.10;;
64950;SDS011;51482;47.014;7.652;2022-12-18T11:54:14;17.17;;;9.63;;
64950;SDS011;51482;47.014;7.652;2022-12-18T11:56:44;13.30;;;8.53;;
64950;SDS011;51482;47.014;7.652;2022-12-18T11:59:20;16.20;;;9.53;;
64950;SDS011;51482;47.014;7.652;2022-12-18T12:04:44;14.57;;;9.03;;
64950;SDS011;51482;47.014;7.652;2022-12-18T12:07:21;17.60;;;9.23;;
64950;SDS011;51482;47.014;7.652;2022-12-18T12:21:09;14.50;;;8.33;;
64950;SDS011;51482;47.014;7.652;2022-12-18T12:27:27;13.40;;;8.20;;
64950;SDS011;51482;47.014;7.652;2022-12-18T12:30:06;11.10;;;8.00;;
64950;SDS011;51482;47.014;7.652;2022-12-18T12:32:30;11.50;;;7.43;;
64950;SDS011;51482;47.014;7.652;2022-12-18T12:35:22;12.13;;;8.20;;
64950;SDS011;51482;47.014;7.652;2022-12-18T12:40:51;12.63;;;8.47;;
64950;SDS011;51482;47.014;7.652;2022-12-18T12:43:28;12.00;;;7.67;;
64950;SDS011;51482;47.014;7.652;2022-12-18T12:46:12;10.50;;;7.27;;
64950;SDS011;51482;47.014;7.652;2022-12-18T12:48:57;12.53;;;8.17;;
64950;SDS011;51482;47.014;7.652;2022-12-18T12:51:30;13.00;;;9.13;;
64950;SDS011;51482;47.014;7.652;2022-12-18T12:53:59;13.40;;;9.77;;
64950;SDS011;51482;47.014;7.652;2022-12-18T12:56:38;14.57;;;8.90;;
64950;SDS011;51482;47.014;7.652;2022-12-18T12:59:21;15.33;;;9.53;;
64950;SDS011;51482;47.014;7.652;2022-12-18T13:02:24;15.90;;;10.10;;
64950;SDS011;51482;47.014;7.652;2022-12-18T13:05:02;14.00;;;9.20;;
64950;SDS011;51482;47.014;7.652;2022-12-18T13:07:40;16.30;;;10.00;;
64950;SDS011;51482;47.014;7.652;2022-12-18T13:10:58;17.93;;;9.70;;
64950;SDS011;51482;47.014;7.652;2022-12-18T13:15:46;15.10;;;9.40;;
64950;SDS011;51482;47.014;7.652;2022-12-18T13:18:14;14.47;;;8.80;;
64950;SDS011;51482;47.014;7.652;2022-12-18T13:25:47;15.40;;;10.17;;
64950;SDS011;51482;47.014;7.652;2022-12-18T13:28:18;19.30;;;11.57;;
64950;SDS011;51482;47.014;7.652;2022-12-18T13:30:50;13.73;;;8.67;;
64950;SDS011;51482;47.014;7.652;2022-12-18T13:36:01;15.10;;;9.10;;
64950;SDS011;51482;47.014;7.652;2022-12-18T13:38:37;13.93;;;8.83;;
64950;SDS011;51482;47.014;7.652;2022-12-18T13:41:04;14.60;;;8.87;;
64950;SDS011;51482;47.014;7.652;2022-12-18T13:43:50;13.80;;;9.57;;
64950;SDS011;51482;47.014;7.652;2022-12-18T13:49:02;10.87;;;8.13;;
64950;SDS011;51482;47.014;7.652;2022-12-18T13:51:52;14.57;;;9.63;;
64950;SDS011;51482;47.014;7.652;2022-12-18T13:54:36;14.53;;;9.17;;
64950;SDS011;51482;47.014;7.652;2022-12-18T13:57:05;10.20;;;7.97;;
64950;SDS011;51482;47.014;7.652;2022-12-18T13:59:50;14.50;;;9.40;;
64950;SDS011;51482;47.014;7.652;2022-12-18T14:02:17;11.30;;;8.97;;
64950;SDS011;51482;47.014;7.652;2022-12-18T14:04:48;14.10;;;8.80;;
64950;SDS011;51482;47.014;7.652;2022-12-18T14:07:16;14.67;;;9.37;;
64950;SDS011;51482;47.014;7.652;2022-12-18T14:09:44;17.43;;;10.43;;
64950;SDS011;51482;47.014;7.652;2022-12-18T14:12:21;15.57;;;10.80;;
64950;SDS011;51482;47.014;7.652;2022-12-18T14:20:19;15.13;;;9.43;;
64950;SDS011;51482;47.014;7.652;2022-12-18T14:22:46;14.87;;;9.60;;
64950;SDS011;51482;47.014;7.652;2022-12-18T14:25:21;15.93;;;9.90;;
64950;SDS011;51482;47.014;7.652;2022-12-18T14:30:35;15.20;;;10.07;;
64950;SDS011;51482;47.014;7.652;2022-12-18T14:33:06;13.63;;;9.20;;
64950;SDS011;51482;47.014;7.652;2022-12-18T14:36:01;13.03;;;9.03;;
64950;SDS011;51482;47.014;7.652;2022-12-18T14:38:27;14.50;;;9.77;;
64950;SDS011;51482;47.014;7.652;2022-12-18T14:43:26;15.70;;;10.67;;
64950;SDS011;51482;47.014;7.652;2022-12-18T14:45:54;13.50;;;9.90;;
64950;SDS011;51482;47.014;7.652;2022-12-18T14:48:22;15.13;;;10.67;;
64950;SDS011;51482;47.014;7.652;2022-12-18T14:53:48;14.20;;;9.20;;
64950;SDS011;51482;47.014;7.652;2022-12-18T14:56:23;13.93;;;9.43;;
64950;SDS011;51482;47.014;7.652;2022-12-18T15:03:56;15.80;;;9.93;;
64950;SDS011;51482;47.014;7.652;2022-12-18T15:06:27;10.90;;;8.40;;
64950;SDS011;51482;47.014;7.652;2022-12-18T15:08:55;9.77;;;7.13;;
64950;SDS011;51482;47.014;7.652;2022-12-18T15:11:36;13.47;;;8.63;;
64950;SDS011;51482;47.014;7.652;2022-12-18T15:14:23;12.00;;;8.10;;
64950;SDS011;51482;47.014;7.652;2022-12-18T15:16:54;12.47;;;8.13;;
64950;SDS011;51482;47.014;7.652;2022-12-18T15:19:21;14.77;;;8.90;;
64950;SDS011;51482;47.014;7.652;2022-12-18T15:21:50;14.17;;;8.83;;
64950;SDS011;51482;47.014;7.652;2022-12-18T15:24:17;14.83;;;8.50;;
64950;SDS011;51482;47.014;7.652;2022-12-18T15:26:47;13.30;;;8.70;;
64950;SDS011;51482;47.014;7.652;2022-12-18T15:29:20;12.90;;;8.93;;
64950;SDS011;51482;47.014;7.652;2022-12-18T15:32:10;12.33;;;8.27;;
64950;SDS011;51482;47.014;7.652;2022-12-18T15:34:45;10.97;;;8.50;;
64950;SDS011;51482;47.014;7.652;2022-12-18T15:37:11;12.87;;;8.33;;
64950;SDS011;51482;47.014;7.652;2022-12-18T15:39:37;12.20;;;8.67;;
64950;SDS011;51482;47.014;7.652;2022-12-18T15:42:02;13.83;;;8.60;;
64950;SDS011;51482;47.014;7.652;2022-12-18T15:44:46;13.20;;;9.23;;
64950;SDS011;51482;47.014;7.652;2022-12-18T15:47:13;15.20;;;8.47;;
64950;SDS011;51482;47.014;7.652;2022-12-18T15:49:39;15.33;;;8.50;;
64950;SDS011;51482;47.014;7.652;2022-12-18T15:52:05;13.77;;;9.20;;
64950;SDS011;51482;47.014;7.652;2022-12-18T15:54:30;13.63;;;8.97;;
64950;SDS011;51482;47.014;7.652;2022-12-18T15:57:15;13.30;;;9.50;;
64950;SDS011;51482;47.014;7.652;2022-12-18T15:59:51;11.63;;;8.23;;
64950;SDS011;51482;47.014;7.652;2022-12-18T16:02:18;12.33;;;9.10;;
64950;SDS011;51482;47.014;7.652;2022-12-18T16:04:44;12.77;;;9.30;;
64950;SDS011;51482;47.014;7.652;2022-12-18T16:07:10;13.83;;;9.13;;
64950;SDS011;51482;47.014;7.652;2022-12-18T16:09:36;16.00;;;9.80;;
64950;SDS011;51482;47.014;7.652;2022-12-18T16:12:03;15.37;;;9.23;;
64950;SDS011;51482;47.014;7.652;2022-12-18T16:14:30;13.20;;;9.30;;
64950;SDS011;51482;47.014;7.652;2022-12-18T16:16:58;13.30;;;9.40;;
64950;SDS011;51482;47.014;7.652;2022-12-18T16:19:30;14.40;;;8.20;;
64950;SDS011;51482;47.014;7.652;2022-12-18T16:21:56;12.80;;;8.77;;
64950;SDS011;51482;47.014;7.652;2022-12-18T16:24:27;15.17;;;9.07;;
64950;SDS011;51482;47.014;7.652;2022-12-18T16:26:56;15.90;;;9.80;;